| time (UTC) | temp F | wind direction | speed MPH | gust MPH | rain 1hr in | rain 24hr in | rain mn in | humidity % | barometer mb |
| 20260901014537 | 60 | 214 | 0.0 | 1.0 | 0.00 | 0.09 | 0.09 | 85 | 1024.4 |
| 20260901014018 | 60 | 0 | 0.0 | 1.0 | 0.00 | 0.09 | 0.09 | 84 | 1024.5 |
| 20260901013518 | 61 | 212 | 0.0 | 2.0 | 0.00 | 0.09 | 0.09 | 85 | 1024.5 |
| 20260901013036 | 61 | 0 | 0.0 | 2.0 | 0.00 | 0.09 | 0.09 | 84 | 1024.5 |
| 20260901012517 | 61 | 226 | 0.0 | 1.0 | 0.00 | 0.09 | 0.09 | 83 | 1024.3 |
| 20260901012021 | 61 | 0 | 0.0 | 0.0 | 0.00 | 0.09 | 0.09 | 84 | 1024.5 |
| 20260901011534 | 61 | 0 | 0.0 | 0.0 | 0.00 | 0.09 | 0.09 | 83 | 1024.5 |
| 20260901011018 | 61 | 0 | 0.0 | 0.0 | 0.00 | 0.09 | 0.09 | 83 | 1024.5 |
| 20260901010523 | 61 | 0 | 0.0 | 1.0 | 0.00 | 0.09 | 0.09 | 83 | 1024.5 |
| 20260901010039 | 61 | 0 | 0.0 | 1.0 | 0.00 | 0.09 | 0.09 | 83 | 1024.6 |
| 20260901005521 | 61 | 56 | 0.0 | 0.0 | 0.00 | 0.09 | 0.09 | 83 | 1024.6 |
| 20260901005018 | 61 | 0 | 0.0 | 0.0 | 0.00 | 0.09 | 0.09 | 83 | 1024.6 |
| 20260901004550 | 61 | 0 | 0.0 | 2.0 | 0.00 | 0.09 | 0.09 | 82 | 1024.7 |
| 20260901004017 | 61 | 0 | 1.0 | 2.0 | 0.00 | 0.09 | 0.09 | 82 | 1024.7 |
| 20260901003521 | 61 | 110 | 1.0 | 2.0 | 0.00 | 0.09 | 0.09 | 81 | 1024.6 |
| 20260901003036 | 61 | 107 | 0.0 | 2.0 | 0.00 | 0.09 | 0.09 | 82 | 1024.7 |
| 20260901002520 | 61 | 0 | 0.0 | 1.0 | 0.00 | 0.09 | 0.09 | 81 | 1024.8 |
| 20260901002022 | 61 | 100 | 0.0 | 1.0 | 0.00 | 0.09 | 0.09 | 81 | 1024.8 |
| 20260901001539 | 61 | 58 | 0.0 | 1.0 | 0.00 | 0.09 | 0.09 | 81 | 1024.8 |
| 20260901001022 | 61 | 0 | 0.0 | 0.0 | 0.00 | 0.09 | 0.09 | 80 | 1024.9 |
| 20260901000518 | 61 | 0 | 0.0 | 1.0 | 0.00 | 0.09 | 0.09 | 81 | 1024.9 |
| 20260901000051 | 61 | 0 | 0.0 | 4.0 | 0.00 | 0.09 | 0.09 | 81 | 1024.9 |
| 20260831235519 | 61 | 0 | 0.0 | 5.0 | 0.00 | 0.09 | 0.09 | 82 | 1024.7 |
| 20260831235016 | 61 | 49 | 3.0 | 6.0 | 0.00 | 0.09 | 0.09 | 82 | 1024.7 |
| 20260831234539 | 61 | 83 | 3.0 | 6.0 | 0.00 | 0.09 | 0.09 | 81 | 1024.7 |
| 20260831234018 | 61 | 86 | 4.0 | 7.0 | 0.00 | 0.09 | 0.09 | 82 | 1024.8 |
| 20260831233521 | 61 | 76 | 5.0 | 7.0 | 0.00 | 0.09 | 0.09 | 81 | 1024.8 |
| 20260831233039 | 61 | 77 | 4.0 | 6.0 | 0.00 | 0.09 | 0.09 | 81 | 1025.0 |
| 20260831232520 | 61 | 70 | 4.0 | 6.0 | 0.00 | 0.09 | 0.09 | 81 | 1025.0 |
| 20260831232017 | 61 | 71 | 3.0 | 4.0 | 0.00 | 0.09 | 0.09 | 81 | 1025.1 |
| 20260831231546 | 61 | 74 | 0.0 | 4.0 | 0.00 | 0.09 | 0.09 | 80 | 1025.0 |
| 20260831231020 | 61 | 0 | 2.0 | 4.0 | 0.00 | 0.09 | 0.09 | 79 | 1025.0 |
| 20260831230519 | 61 | 62 | 0.0 | 3.0 | 0.00 | 0.09 | 0.09 | 80 | 1025.1 |
| 20260831230039 | 61 | 131 | 1.0 | 4.0 | 0.00 | 0.09 | 0.09 | 82 | 1024.9 |
| 20260831225521 | 61 | 135 | 1.0 | 6.0 | 0.00 | 0.09 | 0.09 | 81 | 1025.0 |
| 20260831225018 | 61 | 91 | 3.0 | 6.0 | 0.00 | 0.09 | 0.09 | 81 | 1025.0 |
| 20260831224539 | 61 | 99 | 4.0 | 7.0 | 0.00 | 0.09 | 0.09 | 82 | 1025.0 |
| 20260831224018 | 60 | 96 | 3.0 | 7.0 | 0.00 | 0.09 | 0.09 | 84 | 1025.1 |
| 20260831223520 | 60 | 131 | 4.0 | 7.0 | 0.00 | 0.09 | 0.09 | 84 | 1025.1 |
| 20260831223040 | 59 | 80 | 3.0 | 7.0 | 0.00 | 0.09 | 0.09 | 85 | 1025.0 |
| 20260831222522 | 59 | 122 | 5.0 | 9.0 | 0.01 | 0.09 | 0.09 | 86 | 1025.2 |
| 20260831222020 | 58 | 114 | 7.0 | 9.0 | 0.01 | 0.09 | 0.09 | 86 | 1025.1 |
| 20260831221535 | 58 | 112 | 4.0 | 7.0 | 0.01 | 0.09 | 0.09 | 88 | 1025.2 |
| 20260831221017 | 58 | 146 | 4.0 | 8.0 | 0.01 | 0.09 | 0.09 | 87 | 1025.3 |
| 20260831220517 | 58 | 141 | 6.0 | 8.0 | 0.01 | 0.09 | 0.09 | 87 | 1025.4 |
| 20260831220038 | 58 | 114 | 4.0 | 7.0 | 0.01 | 0.09 | 0.09 | 88 | 1025.4 |
| 20260831215517 | 58 | 124 | 5.0 | 7.0 | 0.01 | 0.09 | 0.09 | 87 | 1025.6 |
| 20260831215018 | 58 | 118 | 2.0 | 7.0 | 0.01 | 0.09 | 0.09 | 89 | 1025.7 |
| 20260831214539 | 57 | 131 | 5.0 | 12.0 | 0.01 | 0.09 | 0.09 | 88 | 1025.8 |
| 20260831214020 | 57 | 96 | 6.0 | 12.0 | 0.01 | 0.09 | 0.09 | 89 | 1025.7 |
| 20260831213526 | 57 | 64 | 9.0 | 12.0 | 0.01 | 0.09 | 0.09 | 88 | 1025.1 |
| 20260831213036 | 57 | 81 | 8.0 | 12.0 | 0.01 | 0.08 | 0.08 | 90 | 1025.4 |
| 20260831212518 | 57 | 74 | 8.0 | 12.0 | 0.02 | 0.08 | 0.08 | 91 | 1025.8 |
| 20260831212018 | 57 | 124 | 8.0 | 10.0 | 0.03 | 0.08 | 0.08 | 90 | 1026.1 |
| 20260831211535 | 56 | 100 | 5.0 | 9.0 | 0.04 | 0.08 | 0.08 | 91 | 1026.2 |
| 20260831211016 | 56 | 92 | 6.0 | 9.0 | 0.04 | 0.08 | 0.08 | 91 | 1026.3 |
| 20260831210519 | 56 | 95 | 6.0 | 9.0 | 0.05 | 0.08 | 0.08 | 90 | 1026.4 |
| 20260831210037 | 56 | 103 | 5.0 | 8.0 | 0.06 | 0.08 | 0.08 | 90 | 1026.7 |
| 20260831205518 | 56 | 103 | 4.0 | 5.0 | 0.06 | 0.08 | 0.08 | 90 | 1026.9 |
| 20260831205021 | 56 | 103 | 3.0 | 6.0 | 0.06 | 0.08 | 0.08 | 90 | 1027.0 |
| 20260831204537 | 56 | 96 | 2.0 | 6.0 | 0.06 | 0.08 | 0.08 | 90 | 1027.2 |
| 20260831204020 | 56 | 70 | 3.0 | 5.0 | 0.06 | 0.08 | 0.08 | 90 | 1027.1 |
| 20260831203520 | 56 | 65 | 3.0 | 4.0 | 0.07 | 0.08 | 0.08 | 89 | 1027.3 |
| 20260831203036 | 56 | 39 | 3.0 | 4.0 | 0.06 | 0.07 | 0.07 | 87 | 1027.2 |
| 20260831202521 | 56 | 21 | 2.0 | 4.0 | 0.05 | 0.06 | 0.06 | 87 | 1027.4 |
| 20260831202017 | 56 | 357 | 2.0 | 4.0 | 0.04 | 0.05 | 0.05 | 87 | 1027.6 |
| 20260831201536 | 57 | 0 | 0.0 | 3.0 | 0.03 | 0.04 | 0.04 | 88 | 1027.7 |
| 20260831201018 | 57 | 312 | 1.0 | 3.0 | 0.02 | 0.03 | 0.03 | 87 | 1027.8 |
| 20260831200518 | 57 | 330 | 0.0 | 4.0 | 0.02 | 0.03 | 0.03 | 89 | 1027.9 |
| 20260831200037 | 57 | 329 | 2.0 | 6.0 | 0.01 | 0.02 | 0.02 | 88 | 1027.9 |
| 20260831195517 | 57 | 321 | 1.0 | 6.0 | 0.01 | 0.02 | 0.02 | 88 | 1027.8 |
| 20260831195018 | 57 | 288 | 4.0 | 7.0 | 0.01 | 0.02 | 0.02 | 88 | 1027.9 |
| 20260831194607 | 57 | 270 | 4.0 | 8.0 | 0.01 | 0.02 | 0.02 | 89 | 1027.9 |
| 20260831194020 | 57 | 310 | 3.0 | 8.0 | 0.01 | 0.02 | 0.02 | 88 | 1027.9 |
| 20260831193523 | 57 | 312 | 6.0 | 8.0 | 0.00 | 0.01 | 0.01 | 87 | 1027.9 |
| 20260831193037 | 58 | 311 | 5.0 | 8.0 | 0.00 | 0.01 | 0.01 | 88 | 1027.8 |
| 20260831192520 | 58 | 311 | 3.0 | 8.0 | 0.01 | 0.01 | 0.01 | 89 | 1027.9 |
| 20260831192019 | 57 | 293 | 5.0 | 8.0 | 0.01 | 0.01 | 0.01 | 87 | 1028.0 |
| 20260831191535 | 57 | 278 | 5.0 | 10.0 | 0.01 | 0.01 | 0.01 | 87 | 1028.0 |
| 20260831191018 | 58 | 299 | 5.0 | 10.0 | 0.01 | 0.01 | 0.01 | 87 | 1028.1 |
| 20260831190518 | 57 | 293 | 7.0 | 10.0 | 0.01 | 0.01 | 0.01 | 86 | 1028.0 |
| 20260831190041 | 57 | 290 | 8.0 | 10.0 | 0.01 | 0.01 | 0.01 | 87 | 1028.0 |
| 20260831185519 | 58 | 287 | 8.0 | 12.0 | 0.01 | 0.01 | 0.01 | 88 | 1028.0 |
| 20260831185018 | 58 | 271 | 6.0 | 12.0 | 0.01 | 0.01 | 0.01 | 88 | 1028.1 |
| 20260831184539 | 58 | 282 | 8.0 | 11.0 | 0.01 | 0.01 | 0.01 | 87 | 1028.2 |
| 20260831184019 | 58 | 281 | 7.0 | 11.0 | 0.01 | 0.01 | 0.01 | 86 | 1028.2 |
| 20260831183522 | 59 | 267 | 7.0 | 13.0 | 0.01 | 0.01 | 0.01 | 84 | 1028.2 |
| 20260831183039 | 59 | 279 | 9.0 | 14.0 | 0.01 | 0.01 | 0.01 | 82 | 1028.2 |
| 20260831182520 | 60 | 259 | 8.0 | 18.0 | 0.00 | 0.00 | 0.00 | 79 | 1028.2 |
| 20260831182020 | 61 | 255 | 11.0 | 18.0 | 0.00 | 0.00 | 0.00 | 76 | 1028.1 |
| 20260831181544 | 62 | 255 | 11.0 | 16.0 | 0.00 | 0.00 | 0.00 | 72 | 1028.2 |
| 20260831181019 | 62 | 285 | 11.0 | 15.0 | 0.00 | 0.00 | 0.00 | 69 | 1028.0 |
| 20260831180517 | 62 | 274 | 10.0 | 15.0 | 0.00 | 0.00 | 0.00 | 69 | 1028.0 |
| 20260831180043 | 63 | 284 | 10.0 | 15.0 | 0.00 | 0.00 | 0.00 | 68 | 1027.9 |
| 20260831175518 | 64 | 293 | 10.0 | 14.0 | 0.00 | 0.00 | 0.00 | 66 | 1027.8 |
| 20260831175019 | 64 | 297 | 6.0 | 13.0 | 0.00 | 0.00 | 0.00 | 66 | 1027.8 |
| 20260831174537 | 65 | 293 | 8.0 | 14.0 | 0.00 | 0.00 | 0.00 | 64 | 1027.8 |
| 20260831174023 | 65 | 257 | 9.0 | 14.0 | 0.00 | 0.00 | 0.00 | 62 | 1027.6 |
| 20260831173517 | 65 | 278 | 10.0 | 15.0 | 0.00 | 0.00 | 0.00 | 62 | 1027.7 |
| 20260831173040 | 65 | 286 | 11.0 | 15.0 | 0.00 | 0.00 | 0.00 | 62 | 1027.6 |
| 20260831172520 | 65 | 278 | 10.0 | 15.0 | 0.00 | 0.00 | 0.00 | 63 | 1027.6 |
| 20260831172021 | 64 | 299 | 10.0 | 16.0 | 0.00 | 0.00 | 0.00 | 63 | 1027.6 |
| 20260831171542 | 65 | 274 | 11.0 | 17.0 | 0.00 | 0.00 | 0.00 | 61 | 1027.4 |
| 20260831171021 | 65 | 283 | 11.0 | 17.0 | 0.00 | 0.00 | 0.00 | 61 | 1027.4 |
| 20260831170520 | 65 | 287 | 10.0 | 16.0 | 0.00 | 0.00 | 0.00 | 63 | 1027.4 |
| 20260831170038 | 65 | 309 | 11.0 | 16.0 | 0.00 | 0.00 | 0.00 | 62 | 1027.4 |
| 20260831165522 | 67 | 288 | 11.0 | 18.0 | 0.00 | 0.00 | 0.00 | 58 | 1027.3 |
| 20260831165021 | 67 | 268 | 11.0 | 18.0 | 0.00 | 0.00 | 0.00 | 57 | 1027.2 |
| 20260831164541 | 68 | 290 | 11.0 | 16.0 | 0.00 | 0.00 | 0.00 | 55 | 1027.2 |
| 20260831164019 | 68 | 263 | 10.0 | 14.0 | 0.00 | 0.00 | 0.00 | 55 | 1027.1 |
| 20260831163520 | 67 | 288 | 7.0 | 13.0 | 0.00 | 0.00 | 0.00 | 57 | 1027.0 |
| 20260831163040 | 66 | 241 | 8.0 | 13.0 | 0.00 | 0.00 | 0.00 | 57 | 1026.9 |
| 20260831162524 | 66 | 240 | 7.0 | 14.0 | 0.00 | 0.00 | 0.00 | 58 | 1026.8 |
| 20260831162018 | 66 | 273 | 8.0 | 14.0 | 0.00 | 0.00 | 0.00 | 58 | 1026.7 |
| 20260831161541 | 66 | 259 | 10.0 | 14.0 | 0.00 | 0.00 | 0.00 | 58 | 1026.6 |
| 20260831161021 | 65 | 254 | 9.0 | 13.0 | 0.00 | 0.00 | 0.00 | 59 | 1026.6 |
| 20260831160520 | 65 | 307 | 10.0 | 13.0 | 0.00 | 0.00 | 0.00 | 58 | 1026.4 |
| 20260831160039 | 65 | 294 | 8.0 | 11.0 | 0.00 | 0.00 | 0.00 | 60 | 1026.5 |
| 20260831155522 | 64 | 281 | 8.0 | 11.0 | 0.00 | 0.00 | 0.00 | 62 | 1026.3 |
| 20260831155023 | 65 | 292 | 7.0 | 9.0 | 0.00 | 0.00 | 0.00 | 61 | 1026.3 |
| 20260831154637 | 64 | 271 | 5.0 | 8.0 | 0.00 | 0.00 | 0.00 | 62 | 1026.3 |
| 20260831154020 | 64 | 271 | 6.0 | 8.0 | 0.00 | 0.00 | 0.00 | 63 | 1026.2 |
| 20260831153523 | 64 | 248 | 5.0 | 6.0 | 0.00 | 0.00 | 0.00 | 61 | 1026.0 |
| 20260831153040 | 64 | 285 | 3.0 | 5.0 | 0.00 | 0.00 | 0.00 | 63 | 1026.0 |
| 20260831152517 | 63 | 294 | 3.0 | 5.0 | 0.00 | 0.00 | 0.00 | 64 | 1026.0 |
| 20260831152025 | 62 | 282 | 3.0 | 4.0 | 0.00 | 0.00 | 0.00 | 65 | 1026.0 |
| 20260831151537 | 62 | 304 | 3.0 | 4.0 | 0.00 | 0.00 | 0.00 | 66 | 1025.8 |
| 20260831151022 | 62 | 288 | 2.0 | 5.0 | 0.00 | 0.00 | 0.00 | 66 | 1025.9 |
| 20260831150520 | 61 | 250 | 2.0 | 8.0 | 0.00 | 0.00 | 0.00 | 67 | 1025.8 |
| 20260831150038 | 61 | 252 | 4.0 | 10.0 | 0.00 | 0.00 | 0.00 | 67 | 1025.8 |
| 20260831145518 | 61 | 243 | 6.0 | 10.0 | 0.00 | 0.00 | 0.00 | 68 | 1025.7 |
| 20260831145020 | 61 | 248 | 7.0 | 10.0 | 0.00 | 0.00 | 0.00 | 68 | 1025.8 |
| 20260831144541 | 60 | 257 | 5.0 | 9.0 | 0.00 | 0.00 | 0.00 | 69 | 1025.8 |
| 20260831144018 | 59 | 273 | 4.0 | 7.0 | 0.00 | 0.00 | 0.00 | 71 | 1025.8 |
| 20260831143518 | 59 | 250 | 2.0 | 5.0 | 0.00 | 0.00 | 0.00 | 73 | 1025.7 |
| 20260831143103 | 58 | 185 | 2.0 | 3.0 | 0.00 | 0.00 | 0.00 | 75 | 1025.7 |
| 20260831142519 | 58 | 159 | 2.0 | 5.0 | 0.00 | 0.00 | 0.00 | 76 | 1025.6 |
| 20260831142021 | 57 | 135 | 3.0 | 5.0 | 0.00 | 0.00 | 0.00 | 76 | 1025.6 |
| 20260831141553 | 57 | 120 | 3.0 | 5.0 | 0.00 | 0.00 | 0.00 | 77 | 1025.4 |
| 20260831141019 | 57 | 144 | 3.0 | 5.0 | 0.00 | 0.00 | 0.00 | 78 | 1025.3 |
| 20260831140519 | 56 | 125 | 3.0 | 7.0 | 0.00 | 0.00 | 0.00 | 78 | 1025.4 |
| 20260831140045 | 56 | 150 | 5.0 | 7.0 | 0.00 | 0.00 | 0.00 | 78 | 1025.4 |
| 20260831135518 | 56 | 122 | 4.0 | 6.0 | 0.00 | 0.00 | 0.00 | 78 | 1025.3 |
| 20260831135025 | 56 | 133 | 4.0 | 6.0 | 0.00 | 0.00 | 0.00 | 78 | 1025.1 |
| 20260831134538 | 56 | 129 | 2.0 | 7.0 | 0.00 | 0.00 | 0.00 | 78 | 1025.0 |
| 20260831134020 | 56 | 113 | 4.0 | 7.0 | 0.00 | 0.00 | 0.00 | 78 | 1024.8 |
| 20260831133523 | 56 | 109 | 4.0 | 7.0 | 0.00 | 0.00 | 0.00 | 78 | 1024.9 |
| 20260831133040 | 55 | 98 | 5.0 | 7.0 | 0.00 | 0.00 | 0.00 | 79 | 1024.9 |
| 20260831132520 | 55 | 94 | 5.0 | 6.0 | 0.00 | 0.00 | 0.00 | 79 | 1025.0 |
| 20260831132017 | 55 | 121 | 4.0 | 5.0 | 0.00 | 0.00 | 0.00 | 80 | 1025.0 |
| 20260831131536 | 55 | 84 | 4.0 | 5.0 | 0.00 | 0.00 | 0.00 | 80 | 1024.9 |
| 20260831131018 | 55 | 94 | 2.0 | 5.0 | 0.00 | 0.00 | 0.00 | 79 | 1024.8 |
| 20260831130519 | 55 | 98 | 3.0 | 5.0 | 0.00 | 0.00 | 0.00 | 79 | 1024.7 |
| 20260831130043 | 55 | 90 | 4.0 | 5.0 | 0.00 | 0.00 | 0.00 | 79 | 1024.6 |
| 20260831125518 | 55 | 91 | 3.0 | 4.0 | 0.00 | 0.00 | 0.00 | 79 | 1024.6 |
| 20260831125020 | 55 | 90 | 3.0 | 5.0 | 0.00 | 0.00 | 0.00 | 78 | 1024.7 |
| 20260831124534 | 55 | 94 | 3.0 | 5.0 | 0.00 | 0.00 | 0.00 | 78 | 1024.6 |
| 20260831124024 | 56 | 112 | 4.0 | 5.0 | 0.00 | 0.00 | 0.00 | 77 | 1024.5 |
| 20260831123519 | 56 | 115 | 4.0 | 6.0 | 0.00 | 0.00 | 0.00 | 76 | 1024.4 |
| 20260831123041 | 56 | 111 | 4.0 | 6.0 | 0.00 | 0.00 | 0.00 | 75 | 1024.2 |
| 20260831122524 | 56 | 125 | 4.0 | 6.0 | 0.00 | 0.00 | 0.00 | 75 | 1024.2 |
| 20260831122017 | 56 | 122 | 4.0 | 7.0 | 0.00 | 0.00 | 0.00 | 75 | 1024.1 |
| 20260831121535 | 55 | 130 | 4.0 | 7.0 | 0.00 | 0.00 | 0.00 | 77 | 1024.1 |
| 20260831121019 | 55 | 120 | 4.0 | 7.0 | 0.00 | 0.00 | 0.00 | 79 | 1024.1 |
| 20260831120520 | 55 | 131 | 4.0 | 7.0 | 0.00 | 0.00 | 0.00 | 79 | 1024.0 |
| 20260831120041 | 55 | 118 | 4.0 | 7.0 | 0.00 | 0.00 | 0.00 | 79 | 1024.0 |
| 20260831115519 | 55 | 107 | 3.0 | 4.0 | 0.00 | 0.00 | 0.00 | 76 | 1024.1 |
| 20260831115021 | 56 | 121 | 2.0 | 5.0 | 0.00 | 0.00 | 0.00 | 73 | 1024.1 |
| 20260831114540 | 56 | 57 | 4.0 | 5.0 | 0.00 | 0.00 | 0.00 | 74 | 1024.0 |
| 20260831114020 | 56 | 68 | 3.0 | 7.0 | 0.00 | 0.00 | 0.00 | 75 | 1024.0 |
| 20260831113520 | 56 | 66 | 4.0 | 7.0 | 0.00 | 0.00 | 0.00 | 74 | 1024.1 |
| 20260831113041 | 56 | 76 | 5.0 | 7.0 | 0.00 | 0.00 | 0.00 | 75 | 1024.1 |
| 20260831112518 | 57 | 79 | 3.0 | 5.0 | 0.00 | 0.00 | 0.00 | 74 | 1024.2 |
| 20260831112019 | 57 | 79 | 2.0 | 6.0 | 0.00 | 0.00 | 0.00 | 74 | 1024.3 |
| 20260831111536 | 56 | 84 | 2.0 | 6.0 | 0.00 | 0.00 | 0.00 | 74 | 1024.3 |
| 20260831111019 | 56 | 68 | 5.0 | 6.0 | 0.00 | 0.00 | 0.00 | 75 | 1024.4 |
| 20260831110527 | 56 | 100 | 3.0 | 4.0 | 0.00 | 0.00 | 0.00 | 75 | 1024.5 |
| 20260831110038 | 56 | 119 | 3.0 | 4.0 | 0.00 | 0.00 | 0.00 | 76 | 1024.5 |
| 20260831105518 | 56 | 96 | 2.0 | 5.0 | 0.00 | 0.03 | 0.00 | 75 | 1024.7 |
| 20260831105019 | 56 | 80 | 3.0 | 5.0 | 0.00 | 0.03 | 0.00 | 74 | 1024.6 |
| 20260831104537 | 56 | 0 | 0.0 | 3.0 | 0.00 | 0.03 | 0.00 | 74 | 1024.6 |
| 20260831104018 | 56 | 77 | 1.0 | 5.0 | 0.00 | 0.03 | 0.00 | 74 | 1024.5 |
| 20260831103518 | 56 | 94 | 2.0 | 5.0 | 0.00 | 0.03 | 0.00 | 74 | 1024.7 |
| 20260831103040 | 56 | 102 | 3.0 | 5.0 | 0.00 | 0.03 | 0.00 | 73 | 1024.7 |
| 20260831102519 | 56 | 85 | 3.0 | 4.0 | 0.00 | 0.03 | 0.00 | 73 | 1024.6 |
| 20260831102018 | 56 | 93 | 0.0 | 4.0 | 0.00 | 0.03 | 0.00 | 73 | 1024.9 |
| 20260831101550 | 57 | 91 | 3.0 | 4.0 | 0.00 | 0.03 | 0.00 | 72 | 1024.8 |
| 20260831101018 | 58 | 98 | 0.0 | 0.0 | 0.00 | 0.03 | 0.00 | 70 | 1024.8 |
| 20260831100517 | 59 | 0 | 0.0 | 1.0 | 0.00 | 0.03 | 0.00 | 68 | 1025.0 |
| 20260831100043 | 59 | 0 | 0.0 | 1.0 | 0.00 | 0.03 | 0.00 | 69 | 1025.1 |
| 20260831095519 | 58 | 0 | 0.0 | 5.0 | 0.00 | 0.04 | 0.00 | 70 | 1025.1 |
| 20260831095024 | 58 | 0 | 1.0 | 5.0 | 0.00 | 0.04 | 0.00 | 70 | 1025.2 |
| 20260831094542 | 58 | 273 | 0.0 | 3.0 | 0.00 | 0.04 | 0.00 | 69 | 1025.3 |
| 20260831094020 | 59 | 0 | 0.0 | 4.0 | 0.00 | 0.04 | 0.00 | 69 | 1025.0 |
| 20260831093520 | 59 | 0 | 2.0 | 4.0 | 0.00 | 0.04 | 0.00 | 68 | 1024.9 |
| 20260831093040 | 59 | 41 | 3.0 | 6.0 | 0.00 | 0.04 | 0.00 | 69 | 1025.0 |
| 20260831092520 | 59 | 51 | 4.0 | 6.0 | 0.00 | 0.04 | 0.00 | 68 | 1024.8 |
| 20260831092017 | 60 | 53 | 2.0 | 6.0 | 0.00 | 0.04 | 0.00 | 67 | 1024.8 |
| 20260831091538 | 60 | 46 | 0.0 | 8.0 | 0.00 | 0.04 | 0.00 | 67 | 1024.8 |
| 20260831091022 | 61 | 0 | 1.0 | 8.0 | 0.00 | 0.04 | 0.00 | 67 | 1024.7 |
| 20260831090519 | 60 | 56 | 4.0 | 8.0 | 0.00 | 0.04 | 0.00 | 69 | 1024.7 |
| 20260831090053 | 60 | 276 | 5.0 | 6.0 | 0.00 | 0.04 | 0.00 | 69 | 1024.6 |
| 20260831085519 | 60 | 321 | 3.0 | 6.0 | 0.00 | 0.04 | 0.00 | 68 | 1024.6 |
| 20260831085020 | 61 | 23 | 4.0 | 9.0 | 0.00 | 0.04 | 0.00 | 67 | 1024.7 |
| 20260831084541 | 61 | 0 | 1.0 | 9.0 | 0.00 | 0.04 | 0.00 | 67 | 1024.6 |
| 20260831084019 | 61 | 222 | 5.0 | 9.0 | 0.00 | 0.04 | 0.00 | 68 | 1024.6 |
| 20260831083520 | 60 | 322 | 1.0 | 3.0 | 0.00 | 0.04 | 0.00 | 69 | 1024.8 |
| 20260831083036 | 60 | 0 | 1.0 | 3.0 | 0.00 | 0.04 | 0.00 | 69 | 1024.8 |
| 20260831082517 | 61 | 30 | 1.0 | 5.0 | 0.00 | 0.04 | 0.00 | 68 | 1024.7 |
| 20260831082016 | 60 | 0 | 1.0 | 5.0 | 0.00 | 0.04 | 0.00 | 69 | 1024.5 |
| 20260831081540 | 60 | 0 | 1.0 | 5.0 | 0.00 | 0.04 | 0.00 | 69 | 1024.7 |
| 20260831081021 | 59 | 292 | 2.0 | 10.0 | 0.00 | 0.04 | 0.00 | 69 | 1024.7 |
| 20260831080520 | 58 | 201 | 5.0 | 10.0 | 0.00 | 0.04 | 0.00 | 72 | 1024.9 |
| 20260831080039 | 57 | 122 | 5.0 | 10.0 | 0.00 | 0.04 | 0.00 | 72 | 1025.4 |
| 20260831075517 | 57 | 134 | 4.0 | 8.0 | 0.00 | 0.04 | 0.00 | 73 | 1025.5 |
| 20260831075020 | 57 | 128 | 3.0 | 6.0 | 0.00 | 0.04 | 0.00 | 73 | 1025.3 |
| 20260831074538 | 57 | 127 | 3.0 | 8.0 | 0.00 | 0.04 | 0.00 | 73 | 1025.2 |
| 20260831074017 | 57 | 151 | 5.0 | 8.0 | 0.00 | 0.04 | 0.00 | 74 | 1025.3 |
| 20260831073526 | 57 | 172 | 4.0 | 8.0 | 0.00 | 0.04 | 0.00 | 73 | 1024.9 |
| 20260831073039 | 58 | 122 | 5.0 | 9.0 | 0.00 | 0.04 | 0.00 | 72 | 1024.6 |
| 20260831072518 | 57 | 113 | 5.0 | 11.0 | 0.00 | 0.04 | 0.00 | 72 | 1024.5 |
| 20260831072023 | 57 | 124 | 7.0 | 12.0 | 0.00 | 0.04 | 0.00 | 73 | 1024.6 |
| 20260831071535 | 57 | 103 | 9.0 | 12.0 | 0.00 | 0.04 | 0.00 | 73 | 1024.5 |
| 20260831071018 | 57 | 80 | 8.0 | 12.0 | 0.00 | 0.04 | 0.00 | 74 | 1024.5 |
| 20260831070523 | 57 | 105 | 8.0 | 12.0 | 0.00 | 0.04 | 0.00 | 74 | 1024.5 |
| 20260831070038 | 57 | 96 | 9.0 | 12.0 | 0.00 | 0.04 | 0.00 | 75 | 1024.5 |
| 20260831065519 | 56 | 92 | 8.0 | 13.0 | 0.00 | 0.04 | 0.00 | 75 | 1024.6 |
| 20260831065020 | 56 | 93 | 9.0 | 13.0 | 0.00 | 0.04 | 0.00 | 76 | 1024.5 |
| 20260831064541 | 56 | 110 | 5.0 | 13.0 | 0.00 | 0.04 | 0.00 | 76 | 1024.6 |
| 20260831064018 | 57 | 128 | 8.0 | 14.0 | 0.00 | 0.04 | 0.00 | 74 | 1024.5 |
| 20260831063523 | 57 | 122 | 8.0 | 14.0 | 0.00 | 0.04 | 0.00 | 74 | 1024.3 |
| 20260831063035 | 57 | 118 | 9.0 | 14.0 | 0.00 | 0.04 | 0.00 | 74 | 1024.3 |
| 20260831062520 | 57 | 113 | 9.0 | 13.0 | 0.00 | 0.04 | 0.00 | 74 | 1024.2 |
| 20260831062020 | 57 | 101 | 9.0 | 13.0 | 0.00 | 0.04 | 0.00 | 74 | 1024.2 |
| 20260831061540 | 57 | 95 | 10.0 | 13.0 | 0.00 | 0.04 | 0.00 | 75 | 1024.1 |
| 20260831061020 | 57 | 96 | 10.0 | 13.0 | 0.00 | 0.04 | 0.00 | 75 | 1024.1 |
| 20260831060519 | 56 | 104 | 10.0 | 13.0 | 0.00 | 0.04 | 0.00 | 75 | 1024.1 |
| 20260831060042 | 56 | 101 | 9.0 | 12.0 | 0.00 | 0.04 | 0.00 | 76 | 1024.1 |
| 20260831055519 | 56 | 97 | 8.0 | 12.0 | 0.00 | 0.04 | 0.04 | 76 | 1024.2 |
| 20260831055020 | 56 | 100 | 8.0 | 12.0 | 0.00 | 0.04 | 0.04 | 75 | 1024.2 |
| 20260831054541 | 56 | 99 | 10.0 | 12.0 | 0.00 | 0.04 | 0.04 | 76 | 1024.2 |
| 20260831054019 | 56 | 101 | 8.0 | 10.0 | 0.00 | 0.04 | 0.04 | 76 | 1024.3 |
| 20260831053518 | 56 | 96 | 7.0 | 10.0 | 0.00 | 0.04 | 0.04 | 76 | 1024.3 |
| 20260831053040 | 56 | 104 | 7.0 | 10.0 | 0.00 | 0.04 | 0.04 | 76 | 1024.3 |
| 20260831052519 | 57 | 99 | 8.0 | 11.0 | 0.00 | 0.04 | 0.04 | 76 | 1024.2 |
| 20260831052019 | 57 | 95 | 8.0 | 14.0 | 0.00 | 0.04 | 0.04 | 76 | 1024.3 |
| 20260831051541 | 57 | 105 | 9.0 | 14.0 | 0.00 | 0.04 | 0.04 | 75 | 1024.3 |
| 20260831051018 | 57 | 106 | 9.0 | 12.0 | 0.00 | 0.04 | 0.04 | 76 | 1024.3 |
| 20260831050516 | 57 | 96 | 9.0 | 13.0 | 0.00 | 0.04 | 0.04 | 76 | 1024.3 |
| 20260831050040 | 57 | 98 | 9.0 | 16.0 | 0.00 | 0.04 | 0.04 | 76 | 1024.4 |
| 20260831045520 | 57 | 117 | 12.0 | 16.0 | 0.00 | 0.04 | 0.04 | 76 | 1024.3 |
| 20260831045019 | 57 | 107 | 12.0 | 16.0 | 0.00 | 0.04 | 0.04 | 76 | 1024.3 |
| 20260831044538 | 57 | 94 | 11.0 | 14.0 | 0.00 | 0.04 | 0.04 | 76 | 1024.4 |
| 20260831044021 | 57 | 101 | 11.0 | 14.0 | 0.00 | 0.04 | 0.04 | 76 | 1024.4 |
| 20260831043521 | 57 | 98 | 11.0 | 14.0 | 0.00 | 0.04 | 0.04 | 76 | 1024.6 |
| 20260831043037 | 58 | 94 | 10.0 | 14.0 | 0.00 | 0.04 | 0.04 | 76 | 1024.7 |
| 20260831042520 | 58 | 83 | 9.0 | 14.0 | 0.00 | 0.04 | 0.04 | 76 | 1024.8 |
| 20260831042017 | 58 | 101 | 10.0 | 15.0 | 0.00 | 0.04 | 0.04 | 75 | 1024.8 |
| 20260831041539 | 58 | 120 | 12.0 | 15.0 | 0.00 | 0.04 | 0.04 | 75 | 1024.8 |
| 20260831041021 | 58 | 101 | 11.0 | 15.0 | 0.00 | 0.04 | 0.04 | 75 | 1024.8 |
| 20260831040521 | 58 | 96 | 9.0 | 15.0 | 0.00 | 0.04 | 0.04 | 75 | 1025.0 |
| 20260831040036 | 58 | 101 | 11.0 | 15.0 | 0.00 | 0.04 | 0.04 | 75 | 1025.0 |
| 20260831035517 | 58 | 88 | 9.0 | 15.0 | 0.00 | 0.04 | 0.04 | 75 | 1024.9 |
| 20260831035020 | 59 | 98 | 12.0 | 17.0 | 0.00 | 0.04 | 0.04 | 74 | 1024.9 |
| 20260831034538 | 59 | 95 | 11.0 | 17.0 | 0.00 | 0.04 | 0.04 | 73 | 1024.9 |
| 20260831034020 | 60 | 86 | 12.0 | 18.0 | 0.00 | 0.04 | 0.04 | 72 | 1025.0 |
| 20260831033519 | 60 | 100 | 13.0 | 18.0 | 0.00 | 0.04 | 0.04 | 70 | 1025.0 |
| 20260831033039 | 61 | 67 | 9.0 | 15.0 | 0.00 | 0.04 | 0.04 | 69 | 1024.9 |
| 20260831032516 | 61 | 117 | 9.0 | 16.0 | 0.00 | 0.04 | 0.04 | 67 | 1024.7 |
| 20260831032017 | 61 | 89 | 9.0 | 16.0 | 0.00 | 0.04 | 0.04 | 70 | 1024.7 |
| 20260831031544 | 61 | 82 | 9.0 | 14.0 | 0.00 | 0.04 | 0.04 | 69 | 1024.7 |
| 20260831031021 | 61 | 85 | 5.0 | 12.0 | 0.00 | 0.04 | 0.04 | 69 | 1024.6 |
| 20260831030520 | 61 | 138 | 8.0 | 18.0 | 0.00 | 0.04 | 0.04 | 70 | 1024.3 |
| 20260831030036 | 61 | 154 | 11.0 | 26.0 | 0.00 | 0.04 | 0.04 | 70 | 1024.3 |
| 20260831025520 | 61 | 142 | 12.0 | 26.0 | 0.00 | 0.04 | 0.04 | 71 | 1024.3 |
| 20260831025019 | 61 | 170 | 17.0 | 27.0 | 0.00 | 0.04 | 0.04 | 71 | 1024.5 |
| 20260831024606 | 61 | 184 | 19.0 | 27.0 | 0.00 | 0.04 | 0.04 | 72 | 1024.6 |
| 20260831024018 | 61 | 181 | 19.0 | 27.0 | 0.00 | 0.04 | 0.04 | 72 | 1024.6 |
| 20260831023519 | 60 | 154 | 11.0 | 19.0 | 0.00 | 0.04 | 0.04 | 73 | 1024.7 |
| 20260831023041 | 60 | 128 | 9.0 | 13.0 | 0.00 | 0.04 | 0.04 | 75 | 1024.7 |
| 20260831022520 | 60 | 117 | 10.0 | 14.0 | 0.00 | 0.04 | 0.04 | 74 | 1024.4 |
| 20260831022018 | 60 | 117 | 11.0 | 14.0 | 0.00 | 0.04 | 0.04 | 73 | 1024.3 |
| 20260831021538 | 61 | 99 | 8.0 | 11.0 | 0.00 | 0.04 | 0.04 | 72 | 1024.0 |
| 20260831021021 | 61 | 134 | 7.0 | 11.0 | 0.00 | 0.04 | 0.04 | 71 | 1024.1 |
| 20260831020520 | 61 | 98 | 8.0 | 12.0 | 0.00 | 0.04 | 0.04 | 70 | 1023.9 |
| 20260831020038 | 61 | 98 | 8.0 | 12.0 | 0.00 | 0.04 | 0.04 | 70 | 1024.0 |
| 20260831015523 | 61 | 91 | 9.0 | 13.0 | 0.00 | 0.04 | 0.04 | 69 | 1023.9 |
| 20260831015017 | 61 | 101 | 8.0 | 13.0 | 0.00 | 0.04 | 0.04 | 70 | 1023.8 |